Time;durP1;ratioP1;P1;durP2;ratioP2;P2;SDS_P1;SDS_P2;PMS_P1;PMS_P2;Temp;Humidity;BMP_temperature;BMP_pressure;BME280_temperature;BME280_humidity;BME280_pressure;Samples;Min_cycle;Max_cycle;Signal;HPM_P1;HPM_P2
2023/11/11 00:01:12;;;;;;;2.27;2.07;;;5.70;80.70;;;4.92;84.88;96391.47;4962373;28;21084;-73
2023/11/11 00:03:39;;;;;;;2.17;1.80;;;5.80;80.90;;;4.92;85.47;96394.16;4952398;29;20938;-75
2023/11/11 00:06:07;;;;;;;2.47;1.97;;;5.80;81.00;;;4.87;84.71;96389.47;4949321;28;20775;-73
2023/11/11 00:08:36;;;;;;;3.97;2.00;;;5.80;80.90;;;4.96;84.66;96382.00;4948753;28;20520;-74
2023/11/11 00:11:05;;;;;;;2.60;2.10;;;5.80;80.90;;;4.90;84.79;96378.34;4946189;28;20472;-73
2023/11/11 00:13:32;;;;;;;4.70;2.07;;;5.80;81.00;;;4.97;85.50;96375.59;4951020;28;20934;-74
2023/11/11 00:16:00;;;;;;;3.33;2.20;;;5.80;81.00;;;4.91;84.69;96371.09;4948187;28;20461;-73
2023/11/11 00:18:28;;;;;;;5.33;2.40;;;5.80;81.00;;;4.89;84.90;96362.47;4950353;28;20468;-74
2023/11/11 00:20:56;;;;;;;2.90;2.00;;;5.70;81.00;;;4.93;85.29;96364.50;4947359;28;20474;-74
2023/11/11 00:23:23;;;;;;;3.50;2.03;;;5.80;81.10;;;4.87;84.75;96356.53;4948350;28;20530;-72
2023/11/11 00:25:52;;;;;;;2.53;2.13;;;5.70;81.00;;;4.98;84.61;96358.50;4947269;28;20464;-74
2023/11/11 00:28:19;;;;;;;3.50;1.97;;;5.80;81.10;;;4.93;84.70;96350.31;4950231;28;20553;-74
2023/11/11 00:30:46;;;;;;;2.27;2.07;;;5.80;81.10;;;4.96;84.92;96357.91;4943240;28;20461;-74
2023/11/11 00:33:15;;;;;;;6.20;2.20;;;5.80;81.00;;;5.02;84.93;96343.63;4942920;28;20465;-73
2023/11/11 00:35:42;;;;;;;2.43;2.00;;;5.90;80.90;;;5.17;84.05;96347.81;4945640;28;20447;-73
2023/11/11 00:38:10;;;;;;;2.90;2.10;;;5.90;80.90;;;5.19;82.86;96351.09;4941576;28;20984;-74
2023/11/11 00:40:39;;;;;;;3.17;2.20;;;6.00;80.50;;;5.16;82.82;96356.88;4940214;28;20477;-74
2023/11/11 00:43:08;;;;;;;4.43;2.03;;;6.00;80.40;;;5.23;83.74;96346.91;4936238;28;20462;-73
2023/11/11 00:45:35;;;;;;;1.90;1.50;;;6.00;80.50;;;5.23;83.11;96349.59;4944821;28;20496;-73
2023/11/11 00:48:03;;;;;;;5.33;1.90;;;6.10;80.20;;;5.25;82.41;96339.50;4951133;28;20451;-73
2023/11/11 00:50:30;;;;;;;2.27;1.53;;;6.10;80.10;;;5.34;82.09;96337.34;4947893;28;21014;-73
2023/11/11 00:52:59;;;;;;;7.27;1.97;;;6.20;80.00;;;5.43;81.48;96345.91;4939072;28;20490;-75
2023/11/11 00:55:27;;;;;;;2.63;1.53;;;6.20;79.90;;;5.39;81.16;96335.63;4941620;28;20458;-73
2023/11/11 00:57:54;;;;;;;9.00;1.83;;;6.30;79.60;;;5.47;81.51;96344.41;4939601;28;20454;-75
2023/11/11 01:00:23;;;;;;;1.90;1.70;;;6.30;79.40;;;5.29;81.18;96308.53;4940949;28;20481;-73
2023/11/11 01:02:51;;;;;;;2.10;1.50;;;6.40;79.30;;;5.55;80.44;96335.25;4945839;28;20788;-73
2023/11/11 01:05:19;;;;;;;2.40;1.70;;;6.40;79.40;;;5.47;80.35;96325.66;4946079;28;20548;-73
2023/11/11 01:07:46;;;;;;;2.30;1.53;;;6.40;79.30;;;5.59;80.40;96325.69;4947610;28;20465;-74
2023/11/11 01:10:14;;;;;;;2.13;1.63;;;6.40;79.30;;;5.51;80.51;96324.16;4947627;28;20922;-75
2023/11/11 01:12:41;;;;;;;1.57;1.47;;;6.40;79.10;;;5.57;80.70;96307.19;4943089;28;20453;-73
2023/11/11 01:15:11;;;;;;;4.10;1.90;;;6.40;79.10;;;5.69;80.09;96315.28;4946322;28;21036;-74
2023/11/11 01:17:40;;;;;;;2.83;1.40;;;6.50;79.10;;;5.58;79.85;96291.91;4946318;28;20484;-74
2023/11/11 01:20:09;;;;;;;2.30;1.87;;;6.50;79.00;;;5.75;79.84;96311.69;4948396;28;21047;-74
2023/11/11 01:22:37;;;;;;;8.23;1.60;;;6.50;78.90;;;5.71;79.58;96321.22;4948095;28;20520;-74
2023/11/11 01:25:05;;;;;;;1.93;1.30;;;6.50;78.80;;;5.77;79.87;96306.09;4944317;28;20943;-74
2023/11/11 01:27:33;;;;;;;2.37;1.43;;;6.50;79.10;;;5.91;79.67;96298.69;4942672;28;20569;-73
2023/11/11 01:30:00;;;;;;;3.30;1.50;;;6.60;79.20;;;5.87;80.78;96298.34;4947698;28;20516;-73
2023/11/11 01:32:28;;;;;;;3.10;1.97;;;6.60;79.60;;;5.87;80.48;96300.19;4948832;28;20930;-73
2023/11/11 01:34:56;;;;;;;1.47;1.37;;;6.60;79.50;;;5.67;80.75;96288.69;4946845;28;20471;-74
2023/11/11 01:37:24;;;;;;;2.30;1.40;;;6.60;79.40;;;5.80;81.01;96287.72;4942589;28;20463;-73
2023/11/11 01:39:51;;;;;;;2.27;1.40;;;6.50;79.80;;;5.68;82.57;96279.63;4943263;28;20484;-72
2023/11/11 01:42:18;;;;;;;3.53;1.33;;;6.50;80.20;;;5.74;83.29;96277.88;4945940;28;20466;-72
2023/11/11 01:44:46;;;;;;;3.80;1.23;;;6.50;80.70;;;5.75;83.58;96276.03;4959617;28;20442;-74
2023/11/11 01:47:16;;;;;;;8.17;2.33;;;6.50;81.10;;;5.74;84.29;96290.50;4953746;28;20454;-72
2023/11/11 01:49:44;;;;;;;1.80;1.17;;;6.40;81.40;;;5.73;83.75;96278.94;4957323;28;20966;-71
2023/11/11 01:52:13;;;;;;;4.10;1.60;;;6.50;81.40;;;5.78;84.45;96278.25;4974031;28;20466;-74
2023/11/11 01:54:41;;;;;;;3.50;2.13;;;6.40;81.50;;;5.74;84.60;96277.09;4971741;28;20462;-74
2023/11/11 01:57:09;;;;;;;1.77;1.60;;;6.50;81.90;;;5.64;83.90;96273.06;4958356;28;20468;-73
2023/11/11 01:59:39;;;;;;;4.60;1.97;;;6.50;81.30;;;5.85;83.87;96273.63;4947486;28;20479;-72
2023/11/11 02:02:06;;;;;;;3.20;1.60;;;6.50;81.50;;;5.59;84.06;96259.56;4944935;28;20918;-75
2023/11/11 02:04:34;;;;;;;2.50;1.67;;;6.50;81.40;;;5.48;84.72;96225.50;4945882;28;20466;-74
2023/11/11 02:07:02;;;;;;;4.27;2.10;;;6.50;81.80;;;5.66;85.73;96270.19;4944733;28;20949;-74
2023/11/11 02:09:30;;;;;;;3.17;1.57;;;6.40;82.20;;;5.64;86.33;96262.34;4947638;28;20454;-74
2023/11/11 02:11:57;;;;;;;1.90;1.60;;;6.40;82.50;;;5.56;87.16;96260.00;4945800;28;20472;-73
2023/11/11 02:14:25;;;;;;;1.90;1.13;;;6.40;82.90;;;5.64;86.86;96262.34;4944632;29;20453;-74
2023/11/11 02:16:52;;;;;;;2.07;1.47;;;6.40;83.10;;;5.60;87.81;96263.88;4946515;28;20461;-74
2023/11/11 02:19:19;;;;;;;2.20;2.00;;;6.40;83.50;;;5.71;86.95;96261.47;4945744;28;20480;-73
2023/11/11 02:21:48;;;;;;;1.60;1.50;;;6.40;83.40;;;5.66;87.23;96257.59;4943867;28;20465;-72
2023/11/11 02:24:18;;;;;;;3.37;1.73;;;6.40;83.20;;;5.86;86.66;96264.56;4942884;28;20469;-72
2023/11/11 02:26:46;;;;;;;2.30;1.70;;;6.50;83.50;;;5.68;86.69;96247.44;4940280;28;20548;-73
2023/11/11 02:29:13;;;;;;;2.10;1.73;;;6.50;83.10;;;5.65;87.18;96244.44;4945234;28;20462;-74
2023/11/11 02:31:41;;;;;;;2.07;1.83;;;6.50;83.50;;;5.55;87.78;96236.94;4938193;28;20476;-72
2023/11/11 02:34:08;;;;;;;2.13;1.90;;;6.40;83.50;;;5.63;88.46;96227.78;4958336;28;20544;-73
2023/11/11 02:36:35;;;;;;;2.47;1.80;;;6.40;84.20;;;5.43;89.46;96241.44;4946143;28;20456;-73
2023/11/11 02:39:03;;;;;;;3.60;2.00;;;6.30;84.30;;;5.53;90.34;96244.38;4945484;28;20814;-74
2023/11/11 02:41:32;;;;;;;4.80;2.07;;;6.30;85.60;;;5.31;91.16;96238.72;4942685;28;20819;-75
2023/11/11 02:44:00;;;;;;;2.40;1.97;;;6.20;86.00;;;5.21;92.72;96226.66;4946277;28;20847;-72
2023/11/11 02:46:27;;;;;;;1.87;1.70;;;6.10;87.00;;;5.14;92.87;96223.22;4945756;28;20899;-73
2023/11/11 02:48:54;;;;;;;1.90;1.80;;;6.10;87.80;;;5.21;93.37;96225.81;4946849;28;21031;-73
2023/11/11 02:51:21;;;;;;;3.97;2.00;;;6.10;88.30;;;5.21;93.32;96225.81;4944806;28;20453;-73
2023/11/11 02:53:48;;;;;;;1.90;1.80;;;6.00;89.20;;;4.63;93.77;96145.00;4941503;28;20466;-72
2023/11/11 02:56:16;;;;;;;2.70;1.97;;;6.00;89.60;;;5.14;93.49;96215.19;4944257;28;20465;-74
2023/11/11 02:58:44;;;;;;;5.67;2.10;;;6.00;89.50;;;5.14;93.61;96220.56;4939401;28;20462;-73
2023/11/11 03:01:12;;;;;;;2.43;1.60;;;6.00;88.90;;;5.17;93.83;96220.13;4943262;28;21038;-74
2023/11/11 03:03:40;;;;;;;2.20;1.90;;;6.00;89.10;;;5.08;93.93;96214.25;4945564;28;20556;-73
2023/11/11 03:06:07;;;;;;;3.77;1.70;;;6.00;89.40;;;5.21;93.44;96213.28;4950124;28;20452;-74
2023/11/11 03:08:36;;;;;;;2.10;1.90;;;6.00;90.00;;;5.12;94.94;96211.13;4948877;28;20811;-73
2023/11/11 03:11:04;;;;;;;3.70;1.67;;;6.00;90.30;;;5.17;94.33;96205.91;4949472;28;20461;-73
2023/11/11 03:13:32;;;;;;;1.90;1.70;;;6.00;90.50;;;5.24;94.11;96217.38;4945475;29;20457;-74
2023/11/11 03:16:01;;;;;;;3.30;2.20;;;6.00;90.20;;;5.24;94.70;96206.66;4949747;28;20476;-74
2023/11/11 03:18:28;;;;;;;1.80;1.70;;;6.00;90.50;;;5.24;94.40;96206.66;4949977;29;20460;-72
2023/11/11 03:20:55;;;;;;;1.87;1.70;;;6.10;90.50;;;5.17;94.84;96203.22;4949667;28;20480;-72
2023/11/11 03:23:22;;;;;;;2.53;2.33;;;6.00;90.40;;;5.16;95.00;96202.44;4945763;28;20490;-73
2023/11/11 03:25:50;;;;;;;2.20;1.90;;;6.00;90.60;;;5.15;94.98;96199.97;4948684;28;21054;-73
2023/11/11 03:28:17;;;;;;;2.90;2.17;;;6.00;90.60;;;5.32;94.43;96200.97;4947637;28;20518;-74
2023/11/11 03:30:44;;;;;;;2.47;1.90;;;6.10;90.30;;;5.24;94.11;96193.25;4945955;28;20466;-74
2023/11/11 03:33:13;;;;;;;3.57;2.43;;;6.10;90.20;;;5.25;93.80;96189.53;4943312;28;20516;-74
2023/11/11 03:35:40;;;;;;;3.03;2.13;;;6.10;90.30;;;5.10;94.40;96193.44;4943460;28;20458;-74
2023/11/11 03:38:09;;;;;;;2.50;1.40;;;6.00;90.30;;;5.22;95.17;96189.97;4944472;28;20468;-73
2023/11/11 03:40:36;;;;;;;2.93;2.07;;;6.00;90.60;;;5.20;94.55;96189.38;4943269;28;20486;-74
2023/11/11 03:43:03;;;;;;;2.10;1.90;;;6.00;90.50;;;5.22;94.44;96187.28;4948146;28;20452;-74
2023/11/11 03:45:31;;;;;;;1.90;1.73;;;6.10;90.50;;;5.22;95.13;96179.25;4949388;28;20462;-74
2023/11/11 03:47:58;;;;;;;4.20;1.83;;;6.10;90.80;;;5.19;95.62;96177.03;4958589;28;20524;-72
2023/11/11 03:50:26;;;;;;;2.43;2.00;;;6.00;91.10;;;5.30;95.47;96178.13;4973469;28;20447;-73
2023/11/11 03:52:53;;;;;;;2.00;1.80;;;6.10;90.90;;;5.24;96.28;96178.00;4955320;28;20492;-73
2023/11/11 03:55:21;;;;;;;2.83;1.90;;;6.10;91.10;;;5.31;95.09;96180.59;4946123;28;20479;-74
2023/11/11 03:57:48;;;;;;;4.20;2.47;;;6.10;91.10;;;5.36;95.50;96186.06;4944344;28;20939;-74
2023/11/11 04:00:19;;;;;;;4.40;2.20;;;6.10;91.20;;;5.21;96.67;96180.31;4938499;28;20489;-73
2023/11/11 04:02:47;;;;;;;2.63;2.20;;;6.10;91.30;;;5.37;95.79;96186.91;4944092;28;20483;-74
2023/11/11 04:05:15;;;;;;;2.00;1.90;;;6.10;91.50;;;5.35;95.68;96189.00;4948018;28;20477;-72
2023/11/11 04:07:46;;;;;;;2.10;1.73;;;6.10;91.30;;;5.35;95.80;96189.00;4947560;28;20492;-73
2023/11/11 04:10:17;;;;;;;1.80;1.70;;;6.10;91.50;;;5.18;97.24;96180.75;4948851;28;20525;-72
2023/11/11 04:12:44;;;;;;;3.10;2.07;;;6.10;91.60;;;5.15;97.38;96190.06;4948985;28;20569;-74
2023/11/11 04:15:11;;;;;;;3.53;2.10;;;6.00;91.80;;;5.27;97.63;96191.97;4945985;28;20442;-74
2023/11/11 04:17:42;;;;;;;2.70;2.50;;;6.10;92.10;;;5.31;97.56;96193.97;4948325;28;20938;-73
2023/11/11 04:20:11;;;;;;;2.20;2.10;;;6.10;92.10;;;4.76;97.77;96115.41;4944450;28;20458;-73
2023/11/11 04:22:38;;;;;;;3.70;2.47;;;6.10;92.20;;;5.35;98.39;96189.78;4945222;28;20457;-73
2023/11/11 04:25:10;;;;;;;2.57;1.90;;;6.20;92.40;;;5.31;98.32;96188.63;4944981;28;20787;-73
2023/11/11 04:27:37;;;;;;;1.60;1.50;;;6.20;92.00;;;5.37;97.72;96186.91;4946974;28;20475;-72
2023/11/11 04:30:06;;;;;;;2.53;1.30;;;6.20;92.30;;;5.46;95.78;96195.44;4948219;28;20464;-72
2023/11/11 04:32:34;;;;;;;1.80;1.57;;;6.30;91.50;;;5.31;96.74;96187.81;4949448;28;20545;-72
2023/11/11 04:35:02;;;;;;;0.97;0.87;;;6.20;91.30;;;5.42;96.20;96204.97;4948342;28;20448;-74
2023/11/11 04:37:30;;;;;;;1.60;1.27;;;6.30;91.20;;;5.38;95.96;96202.75;4948762;28;20577;-72
2023/11/11 04:39:58;;;;;;;2.63;1.50;;;6.30;91.00;;;5.47;95.70;96199.75;4978774;28;20484;-71
2023/11/11 04:42:27;;;;;;;1.37;1.03;;;6.30;91.10;;;5.60;94.77;96207.59;4963760;28;20491;-74
2023/11/11 04:44:56;;;;;;;0.93;0.80;;;6.40;90.90;;;5.57;93.68;96217.94;4963925;28;20500;-72
2023/11/11 04:47:23;;;;;;;0.87;0.80;;;6.40;90.30;;;5.42;94.24;96216.50;4960252;28;20514;-73
2023/11/11 04:49:51;;;;;;;1.27;0.30;;;6.30;89.40;;;5.23;93.58;96221.06;4948342;28;20819;-71
2023/11/11 04:52:18;;;;;;;1.00;0.50;;;6.20;89.00;;;5.29;93.68;96228.22;4961604;28;20476;-73
2023/11/11 04:54:48;;;;;;;0.40;0.30;;;6.20;89.70;;;5.28;93.90;96223.91;4947465;28;20450;-73
2023/11/11 04:57:15;;;;;;;1.27;0.40;;;6.20;89.60;;;5.21;93.12;96231.19;4948195;28;20507;-74
2023/11/11 04:59:43;;;;;;;1.20;0.53;;;6.10;89.10;;;5.03;95.38;96230.16;4942967;28;20460;-74
2023/11/11 05:02:11;;;;;;;2.00;0.60;;;6.00;90.30;;;4.92;97.86;96238.91;4943929;28;20616;-73
2023/11/11 05:04:38;;;;;;;1.37;0.70;;;5.90;91.40;;;4.79;98.97;96245.25;4960175;28;20528;-73
2023/11/11 05:07:05;;;;;;;0.70;0.40;;;5.80;92.40;;;4.64;100.00;96238.41;4945875;28;20457;-74
2023/11/11 05:09:33;;;;;;;0.50;0.40;;;5.70;93.40;;;4.72;100.00;96242.63;4948623;28;20468;-74
2023/11/11 05:12:00;;;;;;;0.50;0.37;;;5.60;94.20;;;4.61;100.00;96241.53;4949492;28;21214;-72
2023/11/11 05:14:28;;;;;;;0.73;0.63;;;5.60;94.00;;;4.75;100.00;96244.88;4948319;28;20483;-73
2023/11/11 05:16:58;;;;;;;0.80;0.70;;;5.60;95.10;;;4.66;100.00;96246.22;4950858;28;20869;-73
2023/11/11 05:19:25;;;;;;;1.10;0.60;;;5.60;95.10;;;4.06;100.00;96184.22;4960199;28;20457;-73
2023/11/11 05:21:53;;;;;;;0.70;0.50;;;5.50;95.10;;;4.50;100.00;96256.44;4942148;28;20478;-72
2023/11/11 05:24:20;;;;;;;0.60;0.60;;;5.50;95.40;;;4.52;100.00;96266.91;4947180;28;20487;-72
2023/11/11 05:26:47;;;;;;;0.40;0.40;;;5.40;95.40;;;4.43;100.00;96263.69;4946534;28;20543;-72
2023/11/11 05:29:14;;;;;;;1.43;0.50;;;5.50;94.80;;;4.49;100.00;96281.56;4954574;28;20452;-71
2023/11/11 05:31:42;;;;;;;0.60;0.50;;;5.40;94.60;;;4.53;100.00;96295.28;4949489;28;20465;-72
2023/11/11 05:34:10;;;;;;;0.47;0.47;;;5.50;94.70;;;4.46;100.00;96297.22;4947045;28;21012;-72
2023/11/11 05:36:37;;;;;;;1.27;0.57;;;5.40;94.10;;;4.34;100.00;96292.56;4947837;28;21000;-72
2023/11/11 05:39:06;;;;;;;0.40;0.30;;;5.30;93.70;;;4.32;100.00;96305.34;4936945;28;20499;-72
2023/11/11 05:41:34;;;;;;;0.40;0.27;;;5.30;93.50;;;4.07;100.00;96305.31;4939713;28;20487;-70
2023/11/11 05:44:03;;;;;;;0.60;0.30;;;5.20;92.80;;;4.11;100.00;96320.72;4944458;28;20760;-71
2023/11/11 05:46:30;;;;;;;0.40;0.30;;;5.10;93.50;;;4.17;100.00;96339.59;4932708;28;20465;-72
2023/11/11 05:48:57;;;;;;;0.50;0.30;;;5.10;94.10;;;4.15;100.00;96333.63;4945896;28;20464;-72
2023/11/11 05:51:27;;;;;;;0.40;0.30;;;5.10;94.30;;;4.16;100.00;96370.81;4939709;28;20462;-72
2023/11/11 05:53:54;;;;;;;0.70;0.30;;;5.10;94.30;;;4.04;100.00;96353.84;4943911;28;20464;-72
2023/11/11 05:56:21;;;;;;;0.40;0.30;;;5.00;93.40;;;3.97;100.00;96357.38;4956212;28;20485;-73
2023/11/11 05:58:49;;;;;;;0.40;0.40;;;5.00;93.20;;;4.00;100.00;96366.00;4943470;28;20452;-74
2023/11/11 06:01:16;;;;;;;0.50;0.47;;;5.00;93.40;;;3.90;100.00;96380.66;4943021;28;20511;-73
2023/11/11 06:03:43;;;;;;;0.40;0.30;;;4.90;92.70;;;3.84;99.99;96373.47;4945651;28;20855;-73
2023/11/11 06:06:11;;;;;;;0.60;0.40;;;4.90;92.50;;;3.77;100.00;96378.03;4940652;28;20893;-75
2023/11/11 06:08:40;;;;;;;0.40;0.30;;;4.90;92.80;;;3.90;100.00;96383.31;4944787;29;20463;-72
2023/11/11 06:11:07;;;;;;;0.37;0.30;;;4.90;93.90;;;3.86;100.00;96392.78;4945539;28;20465;-73
2023/11/11 06:13:35;;;;;;;0.50;0.50;;;4.90;94.00;;;3.79;100.00;96408.03;4946374;28;20457;-73
2023/11/11 06:16:02;;;;;;;0.40;0.30;;;4.80;93.90;;;3.86;100.00;96421.34;4944313;28;20488;-71
2023/11/11 06:18:29;;;;;;;0.60;0.40;;;4.80;94.50;;;3.74;100.00;96424.69;4942188;28;20453;-70
2023/11/11 06:20:56;;;;;;;0.60;0.40;;;4.80;93.90;;;3.75;100.00;96439.69;4944847;28;20578;-72
2023/11/11 06:23:24;;;;;;;0.40;0.30;;;4.80;93.90;;;3.79;100.00;96440.91;4943734;28;20464;-73
2023/11/11 06:25:52;;;;;;;0.43;0.30;;;4.80;94.40;;;3.72;100.00;96450.00;4948090;28;20464;-72
2023/11/11 06:28:20;;;;;;;0.50;0.40;;;4.80;93.90;;;3.68;100.00;96442.38;4937229;28;20466;-70
2023/11/11 06:30:48;;;;;;;0.40;0.40;;;4.70;94.00;;;3.61;100.00;96460.28;4940930;28;21016;-72
2023/11/11 06:33:15;;;;;;;0.50;0.40;;;4.70;94.40;;;3.78;100.00;96470.50;4941773;28;20472;-72
2023/11/11 06:35:42;;;;;;;0.47;0.47;;;4.80;95.30;;;3.65;100.00;96474.03;4944411;28;20512;-71
2023/11/11 06:38:12;;;;;;;1.07;0.50;;;4.70;94.50;;;3.74;100.00;96488.00;4945482;28;20468;-72
2023/11/11 06:40:39;;;;;;;0.60;0.57;;;4.70;94.90;;;3.77;100.00;96484.91;4947334;28;20463;-71
2023/11/11 06:43:08;;;;;;;0.60;0.60;;;4.80;95.20;;;3.85;100.00;96508.69;4948655;28;20452;-70
2023/11/11 06:45:35;;;;;;;1.00;0.90;;;4.80;95.20;;;3.85;100.00;96508.69;4944012;28;20471;-71
2023/11/11 06:48:05;;;;;;;0.60;0.50;;;4.80;94.90;;;3.88;100.00;96502.97;4948369;28;20488;-74
2023/11/11 06:50:32;;;;;;;1.00;0.50;;;4.90;94.60;;;3.78;100.00;96514.06;4943242;28;21261;-71
2023/11/11 06:52:59;;;;;;;0.67;0.50;;;4.90;95.30;;;3.60;100.00;96517.41;4949797;29;20552;-72
2023/11/11 06:55:29;;;;;;;0.57;0.57;;;4.90;94.80;;;3.66;100.00;96521.91;4961709;28;20462;-71
2023/11/11 06:57:56;;;;;;;0.73;0.60;;;4.90;94.80;;;3.59;100.00;96534.47;4945980;29;20463;-73
2023/11/11 07:00:25;;;;;;;0.53;0.53;;;4.90;94.20;;;3.64;100.00;96550.66;4949923;28;20522;-71
2023/11/11 07:02:54;;;;;;;0.77;0.73;;;4.90;94.20;;;3.65;100.00;96530.94;4952270;28;20495;-73
2023/11/11 07:05:22;;;;;;;0.60;0.50;;;4.90;94.60;;;3.68;100.00;96546.56;4948985;28;20456;-70
2023/11/11 07:07:49;;;;;;;0.70;0.50;;;5.00;94.30;;;3.71;100.00;96565.84;4947436;28;20512;-72
2023/11/11 07:10:16;;;;;;;0.47;0.47;;;5.00;94.70;;;3.66;100.00;96569.19;4949848;28;20468;-74
2023/11/11 07:12:44;;;;;;;0.50;0.50;;;4.90;94.40;;;3.69;100.00;96582.13;4947904;28;20454;-71
2023/11/11 07:15:12;;;;;;;1.23;0.80;;;5.00;94.70;;;3.74;100.00;96586.84;4945009;28;20493;-72
2023/11/11 07:17:41;;;;;;;0.60;0.50;;;5.00;95.30;;;3.78;100.00;96588.06;4947547;28;20813;-72
2023/11/11 07:20:12;;;;;;;0.63;0.50;;;5.00;94.70;;;3.82;100.00;96589.28;4950375;28;20468;-73
2023/11/11 07:22:39;;;;;;;0.50;0.43;;;5.10;95.00;;;3.79;100.00;96595.06;4952664;28;20571;-73
2023/11/11 07:25:09;;;;;;;0.97;0.60;;;5.10;95.00;;;4.12;100.00;96596.84;4949992;28;20466;-73
2023/11/11 07:27:36;;;;;;;2.30;1.30;;;5.10;95.90;;;4.13;100.00;96614.53;4949814;28;20540;-74
2023/11/11 07:30:09;;;;;;;1.53;0.83;;;5.10;95.80;;;4.07;100.00;96608.16;4954524;28;20449;-71
2023/11/11 07:32:37;;;;;;;1.00;0.80;;;5.20;96.20;;;4.24;100.00;96616.56;4949149;28;20465;-72
2023/11/11 07:35:07;;;;;;;1.00;1.00;;;5.20;97.00;;;4.28;100.00;96619.66;4950222;28;20976;-72
2023/11/11 07:37:35;;;;;;;1.40;1.10;;;5.20;97.00;;;3.86;100.00;96577.16;4956561;28;20535;-71
2023/11/11 07:40:04;;;;;;;1.40;1.30;;;5.20;96.80;;;4.28;100.00;96634.84;4963900;28;20454;-69
2023/11/11 07:42:31;;;;;;;2.37;2.10;;;5.30;96.80;;;4.31;100.00;96639.78;4962033;28;20503;-69
2023/11/11 07:44:59;;;;;;;2.00;1.90;;;5.30;96.90;;;4.27;100.00;96639.41;4961824;28;20463;-71
2023/11/11 07:47:26;;;;;;;3.00;2.13;;;5.30;97.40;;;4.39;100.00;96658.28;4947517;28;20616;-70
2023/11/11 07:49:53;;;;;;;5.13;3.90;;;5.40;97.70;;;4.43;100.00;96654.16;4944496;28;20462;-71
2023/11/11 07:52:23;;;;;;;3.93;3.53;;;5.40;97.60;;;4.56;100.00;96663.19;4945157;28;20490;-70
2023/11/11 07:54:50;;;;;;;3.60;2.83;;;5.50;97.90;;;4.54;100.00;96666.06;4947911;28;20462;-72
2023/11/11 07:57:18;;;;;;;4.67;3.90;;;5.60;96.80;;;4.62;100.00;96665.00;4946640;28;20484;-72
2023/11/11 07:59:46;;;;;;;5.87;5.00;;;5.60;95.80;;;4.73;100.00;96669.72;4944248;28;20946;-70
2023/11/11 08:02:14;;;;;;;4.47;4.07;;;5.70;95.30;;;4.85;100.00;96685.13;4946339;28;20539;-69
2023/11/11 08:04:42;;;;;;;6.30;4.30;;;5.80;94.90;;;4.85;100.00;96679.75;4946748;28;20461;-71
2023/11/11 08:07:11;;;;;;;5.30;4.60;;;5.80;95.00;;;4.98;100.00;96687.75;4947320;29;20575;-72
2023/11/11 08:09:40;;;;;;;5.30;4.30;;;5.90;94.70;;;5.01;100.00;96681.97;4949430;28;20465;-72
2023/11/11 08:12:09;;;;;;;4.87;4.37;;;6.00;94.20;;;5.20;100.00;96693.63;4949516;28;20533;-70
2023/11/11 08:14:36;;;;;;;4.80;3.87;;;6.10;94.60;;;5.15;100.00;96697.97;4943174;29;20462;-71
2023/11/11 08:17:04;;;;;;;4.90;3.70;;;6.10;93.80;;;5.22;100.00;96696.06;4947104;29;20452;-80
2023/11/11 08:19:33;;;;;;;4.33;3.63;;;6.10;93.40;;;5.27;100.00;96704.31;4950897;28;20962;-73
2023/11/11 08:22:00;;;;;;;4.20;3.77;;;6.20;93.30;;;5.35;100.00;96708.59;4948087;28;20473;-74
2023/11/11 08:24:27;;;;;;;4.30;4.00;;;6.30;93.40;;;5.50;100.00;96711.81;4947569;28;20516;-73
2023/11/11 08:26:56;;;;;;;5.83;4.03;;;6.30;93.10;;;5.48;100.00;96710.38;4949415;28;21089;-73
2023/11/11 08:29:24;;;;;;;4.73;4.23;;;6.40;92.70;;;5.56;100.00;96728.88;4944634;28;20990;-73
2023/11/11 08:31:52;;;;;;;4.23;3.50;;;6.40;93.00;;;5.44;99.39;96723.34;4947066;28;20451;-71
2023/11/11 08:34:19;;;;;;;6.70;3.33;;;6.40;91.80;;;5.44;99.22;96727.91;4944963;28;21306;-73
2023/11/11 08:36:46;;;;;;;3.17;2.90;;;6.40;92.10;;;5.42;99.89;96735.34;4946759;28;20961;-72
2023/11/11 08:39:14;;;;;;;3.30;3.00;;;6.40;92.00;;;5.46;99.74;96732.03;4945906;28;20468;-74
2023/11/11 08:41:41;;;;;;;4.23;3.03;;;6.40;92.10;;;5.51;99.05;96744.75;4946552;28;20997;-72
2023/11/11 08:44:10;;;;;;;3.13;2.50;;;6.40;92.20;;;5.42;98.11;96719.28;4945658;28;20811;-71
2023/11/11 08:46:38;;;;;;;3.00;2.60;;;6.50;91.40;;;5.73;97.37;96747.13;4947564;28;20457;-72
2023/11/11 08:49:06;;;;;;;4.23;2.40;;;6.60;91.40;;;5.65;96.59;96753.56;4948872;28;20998;-73
2023/11/11 08:51:33;;;;;;;1.70;1.50;;;6.60;90.70;;;5.56;96.44;96744.97;4944617;29;20457;-71
2023/11/11 08:54:00;;;;;;;2.53;2.10;;;6.60;90.50;;;5.60;97.68;96770.28;4963277;28;20858;-73
2023/11/11 08:56:28;;;;;;;5.20;2.00;;;6.60;91.00;;;5.68;96.94;96764.66;4944816;29;20450;-74
2023/11/11 08:58:56;;;;;;;2.63;2.43;;;6.60;90.90;;;5.66;96.47;96769.41;4944843;28;20490;-76
2023/11/11 09:01:25;;;;;;;2.40;2.20;;;6.60;90.60;;;5.60;98.09;96775.63;4935176;29;20497;-76
2023/11/11 09:03:54;;;;;;;3.13;2.20;;;6.60;91.30;;;5.39;98.85;96774.91;4960625;28;20571;-77
2023/11/11 09:06:21;;;;;;;2.50;2.30;;;6.40;91.50;;;5.32;99.87;96767.94;4938923;28;20508;-76
2023/11/11 09:08:48;;;;;;;3.07;2.77;;;6.30;92.40;;;5.35;100.00;96779.03;4949198;29;20564;-75
2023/11/11 09:11:16;;;;;;;4.70;2.83;;;6.30;93.30;;;5.32;100.00;96774.09;4943357;28;20461;-75
2023/11/11 09:13:43;;;;;;;4.30;3.33;;;6.30;93.20;;;5.38;100.00;96777.81;4949168;28;20497;-74
2023/11/11 09:16:10;;;;;;;5.13;2.57;;;6.30;93.90;;;5.37;100.00;96787.69;4962114;28;20469;-76
2023/11/11 09:18:39;;;;;;;3.30;3.00;;;6.30;93.60;;;5.33;100.00;96788.34;4948876;28;20459;-74
2023/11/11 09:21:07;;;;;;;3.63;2.50;;;6.30;93.20;;;5.39;100.00;96801.72;4947888;29;20454;-74
2023/11/11 09:23:36;;;;;;;3.17;2.87;;;6.20;93.60;;;5.43;100.00;96790.56;4945323;28;20468;-77
2023/11/11 09:26:06;;;;;;;3.50;3.17;;;6.30;94.10;;;5.46;100.00;96803.53;4944238;28;20464;-76
2023/11/11 09:28:34;;;;;;;3.77;2.50;;;6.30;93.60;;;5.49;100.00;96800.41;4939476;29;20457;-77
2023/11/11 09:31:01;;;;;;;5.87;2.80;;;6.30;93.70;;;5.47;100.00;96781.06;4940019;29;20477;-77
2023/11/11 09:33:30;;;;;;;2.80;2.50;;;6.40;93.60;;;5.59;98.95;96800.78;4948671;28;20465;-77
2023/11/11 09:36:00;;;;;;;4.20;2.60;;;6.50;92.10;;;5.75;98.63;96804.00;4941707;29;20551;-78
2023/11/11 09:38:27;;;;;;;3.63;2.60;;;6.60;92.40;;;5.86;97.81;96813.22;4946987;28;20485;-77
2023/11/11 09:41:03;;;;;;;3.53;2.37;;;6.70;91.70;;;6.00;97.07;96816.66;4948139;28;21340;-73
2023/11/11 09:43:30;;;;;;;2.80;2.50;;;6.80;91.40;;;5.89;95.75;96794.88;4940355;29;20469;-77
2023/11/11 09:45:58;;;;;;;4.03;2.30;;;6.90;90.70;;;6.16;95.92;96824.22;4946426;28;20457;-70
2023/11/11 09:48:26;;;;;;;4.33;2.47;;;7.00;90.50;;;6.15;94.00;96825.28;4947976;29;20457;-70
2023/11/11 09:50:54;;;;;;;2.73;2.13;;;7.10;90.00;;;5.82;93.45;96761.91;4946838;28;20464;-70
2023/11/11 09:53:23;;;;;;;2.53;2.10;;;7.10;89.30;;;6.60;92.12;96837.72;4944352;28;20467;-70
2023/11/11 09:55:52;;;;;;;1.97;1.87;;;7.30;89.10;;;6.92;88.94;96845.72;4945145;28;20548;-70
2023/11/11 09:58:20;;;;;;;2.70;1.97;;;7.70;87.70;;;6.90;88.18;96836.22;4956292;28;20446;-70
2023/11/11 10:00:48;;;;;;;2.00;1.70;;;7.70;86.00;;;7.08;89.03;96838.97;4940889;28;20461;-71
2023/11/11 10:03:17;;;;;;;1.50;1.40;;;7.90;86.60;;;6.98;86.32;96835.16;4946391;29;20547;-70
2023/11/11 10:05:44;;;;;;;1.40;1.30;;;7.90;85.10;;;6.94;86.00;96840.13;4944331;28;20466;-71
2023/11/11 10:08:11;;;;;;;2.27;1.50;;;7.90;84.70;;;6.93;88.49;96841.19;4946247;29;20955;-72
2023/11/11 10:10:42;;;;;;;1.53;1.23;;;7.80;86.10;;;6.97;87.63;96846.91;4947831;28;20454;-70
2023/11/11 10:13:10;;;;;;;1.00;0.90;;;7.80;85.20;;;6.79;87.47;96845.81;4948335;28;20458;-71
2023/11/11 10:15:37;;;;;;;1.30;1.17;;;7.70;85.00;;;6.79;87.92;96843.97;4951088;28;20512;-70
2023/11/11 10:18:06;;;;;;;1.30;1.20;;;7.70;85.40;;;6.73;86.74;96839.47;4953014;28;20496;-71
2023/11/11 10:20:34;;;;;;;1.50;1.07;;;7.70;84.80;;;6.76;86.92;96843.59;4949337;28;20741;-71
2023/11/11 10:23:02;;;;;;;1.27;1.10;;;7.70;84.80;;;6.88;86.21;96851.75;4946795;29;20642;-70
2023/11/11 10:25:29;;;;;;;1.17;1.07;;;7.70;84.40;;;6.92;84.88;96859.13;4944278;29;20454;-71
2023/11/11 10:27:59;;;;;;;1.10;1.00;;;7.80;84.00;;;6.99;86.46;96856.41;4948944;28;21022;-71
2023/11/11 10:30:28;;;;;;;1.83;1.73;;;7.80;84.60;;;7.11;86.39;96853.78;4949214;28;20473;-71
2023/11/11 10:32:58;;;;;;;1.20;1.10;;;8.00;84.90;;;7.28;84.94;96856.72;4964364;28;20469;-71